This is the latest recevied weather packets stored in our database for station/object WE0DX-1. If no packets are shown the sender has not sent any weather packets the latest 10 day(s).
| Time | Temp. | Humidity | Pressure | Rain* | Wind** | Luminosity | Snow |
|---|---|---|---|---|---|---|---|
| 1778021282 | 11.67° C | 79% | 1010.8 hPa | 0 mm | - | 48 W/m² | - |
| 1778020980 | 11.67° C | 78% | 1010.6 hPa | 0 mm | - | 50 W/m² | - |
| 1778020677 | 11.67° C | 78% | 1010.9 hPa | 0 mm | - | 59 W/m² | - |
| 1778020374 | 11.11° C | 77% | 1011 hPa | 0 mm | - | 57 W/m² | - |
| 1778020069 | 11.11° C | 78% | 1011.1 hPa | 0 mm | - | 68 W/m² | - |
| 1778019766 | 11.11° C | 78% | 1010.9 hPa | 0 mm | - | 76 W/m² | - |
| 1778019463 | 11.11° C | 79% | 1010.9 hPa | 0 mm | - | 77 W/m² | - |
| 1778019160 | 11.11° C | 78% | 1010.9 hPa | 0 mm | - | 79 W/m² | - |
| 1778018856 | 11.11° C | 80% | 1010.7 hPa | 0 mm | - | 90 W/m² | - |
| 1778018554 | 11.11° C | 80% | 1010.9 hPa | 0 mm | - | 78 W/m² | - |
| 1778018252 | 11.11° C | 80% | 1011 hPa | 0 mm | - | 63 W/m² | - |
| 1778017950 | 11.11° C | 78% | 1010.9 hPa | 0 mm | - | 65 W/m² | - |
| 1778017647 | 11.11° C | 79% | 1011.3 hPa | 0 mm | - | 58 W/m² | - |
| 1778017344 | 11.11° C | 79% | 1011.2 hPa | 0 mm | - | 61 W/m² | - |
| 1778017042 | 11.11° C | 77% | 1011.1 hPa | 0 mm | - | 62 W/m² | - |
| 1778016739 | 11.11° C | 76% | 1010.9 hPa | 0 mm | - | 81 W/m² | - |
| 1778016435 | 11.11° C | 79% | 1011.2 hPa | 0 mm | - | 66 W/m² | - |
| 1778016132 | 11.11° C | 77% | 1011 hPa | 0 mm | - | 64 W/m² | - |
| 1778015829 | 11.11° C | 76% | 1010.9 hPa | 0 mm | - | 129 W/m² | - |
| 1778015526 | 11.11° C | 76% | 1011.1 hPa | 0 mm | - | 111 W/m² | - |
| 1778015223 | 11.11° C | 75% | 1011.5 hPa | 0 mm | - | 69 W/m² | - |
| 1778014920 | 11.11° C | 76% | 1011.2 hPa | 0 mm | - | 118 W/m² | - |
| 1778014617 | 11.11° C | 76% | 1011.3 hPa | 0 mm | - | 134 W/m² | - |
| 1778014315 | 11.11° C | 76% | 1011.4 hPa | 0 mm | - | 142 W/m² | - |
| 1778014012 | 10.56° C | 77% | 1011.3 hPa | 0 mm | - | 139 W/m² | - |
* Rain latest hour (hover to see other rain measurements)
** Current wind speed in m/s (hover to see current wind gust speed)